createdAt,value
2023-01-02T00:03:58.241Z,16.30
2023-01-02T00:09:02.574Z,16.50
2023-01-02T00:14:05.949Z,16.10
2023-01-02T00:19:08.885Z,15.50
2023-01-02T00:24:11.865Z,16.00
2023-01-02T00:29:14.785Z,16.20
2023-01-02T00:34:17.767Z,15.50
2023-01-02T00:39:20.891Z,15.50
2023-01-02T00:44:23.884Z,14.80
2023-01-02T00:49:26.941Z,16.10
2023-01-02T00:54:29.915Z,14.80
2023-01-02T00:59:32.902Z,15.50
2023-01-02T01:04:37.073Z,15.60
2023-01-02T01:09:40.060Z,15.70
2023-01-02T01:14:43.905Z,15.20
2023-01-02T01:19:46.856Z,14.90
2023-01-02T01:24:50.299Z,16.70
2023-01-02T01:29:53.423Z,15.20
2023-01-02T01:34:56.440Z,15.70
2023-01-02T01:39:59.423Z,16.20
2023-01-02T01:45:03.042Z,15.10
2023-01-02T01:55:31.428Z,14.40
2023-01-02T02:00:35.238Z,14.60
2023-01-02T02:05:39.875Z,15.50
2023-01-02T02:10:43.137Z,14.50
2023-01-02T02:16:07.835Z,14.90
2023-01-02T02:21:13.690Z,15.30
2023-01-02T02:26:29.437Z,15.60
2023-01-02T02:31:34.625Z,15.70
2023-01-02T02:37:02.021Z,14.90
2023-01-02T02:42:45.140Z,14.40
2023-01-02T02:47:56.298Z,13.50
2023-01-02T02:53:11.792Z,12.50
2023-01-02T02:58:16.734Z,14.90
2023-01-02T03:03:24.474Z,17.20
2023-01-02T03:09:23.267Z,15.70
2023-01-02T03:14:39.887Z,14.30
2023-01-02T03:19:49.611Z,15.50
2023-01-02T03:24:55.548Z,14.40
2023-01-02T03:30:22.740Z,12.70
2023-01-02T03:35:33.049Z,12.80
2023-01-02T03:40:44.142Z,13.70
2023-01-02T03:46:02.180Z,14.20
2023-01-02T03:51:05.451Z,14.50
2023-01-02T03:56:39.287Z,15.80
2023-01-02T04:01:47.702Z,14.00
2023-01-02T04:06:58.723Z,15.00
2023-01-02T04:12:14.054Z,13.00
2023-01-02T04:17:20.882Z,13.60
2023-01-02T04:22:28.998Z,14.70
2023-01-02T04:28:03.017Z,14.60
2023-01-02T04:33:10.452Z,14.80
2023-01-02T04:38:13.526Z,17.10
2023-01-02T04:43:22.283Z,17.10
2023-01-02T04:48:25.414Z,15.00
2023-01-02T04:53:28.357Z,16.10
2023-01-02T04:58:31.574Z,16.40
2023-01-02T05:03:34.532Z,15.30
2023-01-02T05:08:38.552Z,14.90
2023-01-02T05:13:42.052Z,14.40
2023-01-02T05:23:50.817Z,15.40
2023-01-02T05:28:54.980Z,15.70
2023-01-02T05:33:59.697Z,15.10
2023-01-02T05:39:02.669Z,13.90
2023-01-02T05:44:08.775Z,15.20
2023-01-02T05:49:12.899Z,17.30
2023-01-02T05:54:16.223Z,18.20
2023-01-02T05:59:19.181Z,19.30
2023-01-02T06:04:22.194Z,20.20
2023-01-02T06:09:25.177Z,17.70
2023-01-02T06:14:28.141Z,16.50
2023-01-02T06:19:31.086Z,16.50
2023-01-02T06:24:34.024Z,19.60
2023-01-02T06:29:36.975Z,20.10
2023-01-02T06:34:39.940Z,18.80
2023-01-02T06:39:42.890Z,17.70
2023-01-02T06:44:45.838Z,17.90
2023-01-02T06:49:48.750Z,15.80
2023-01-02T06:54:51.685Z,17.60
2023-01-02T06:59:54.628Z,17.20
2023-01-02T07:04:57.580Z,16.30
2023-01-02T07:10:00.574Z,15.50
2023-01-02T07:15:07.010Z,18.10
2023-01-02T07:20:10.742Z,18.90
2023-01-02T07:30:16.761Z,18.00
2023-01-02T07:35:19.756Z,16.20
2023-01-02T07:40:26.042Z,19.00
2023-01-02T07:45:34.965Z,18.50
2023-01-02T07:50:37.987Z,18.20
2023-01-02T07:55:40.970Z,17.70
2023-01-02T08:00:43.910Z,16.70
2023-01-02T08:05:46.910Z,18.30
2023-01-02T08:10:49.880Z,20.40
2023-01-02T08:15:52.828Z,18.20
2023-01-02T08:20:56.262Z,19.60
2023-01-02T08:26:05.191Z,18.70
2023-01-02T08:31:13.990Z,22.00
2023-01-02T08:36:17.080Z,20.60
2023-01-02T08:41:38.297Z,20.00
2023-01-02T08:46:43.009Z,15.20
2023-01-02T08:51:46.273Z,12.60
2023-01-02T08:56:49.436Z,12.30
2023-01-02T09:01:53.178Z,12.20
2023-01-02T09:06:56.113Z,11.30
2023-01-02T09:12:00.477Z,10.20
2023-01-02T09:17:03.536Z,11.00
2023-01-02T09:22:06.479Z,10.10
2023-01-02T09:27:09.508Z,9.70
2023-01-02T09:32:12.451Z,10.50
2023-01-02T09:37:15.353Z,10.30
2023-01-02T09:42:18.504Z,8.90
2023-01-02T09:47:29.641Z,10.10
2023-01-02T09:52:40.307Z,10.10
2023-01-02T09:57:57.137Z,9.80
2023-01-02T10:03:32.330Z,9.50
2023-01-02T10:08:53.338Z,10.80
2023-01-02T10:14:20.596Z,9.50
2023-01-02T10:19:48.876Z,14.80
2023-01-02T10:25:15.977Z,68.60
2023-01-02T10:30:26.683Z,106.70
2023-01-02T10:35:39.193Z,58.90
2023-01-02T10:40:46.183Z,39.20
2023-01-02T10:45:49.132Z,25.90
2023-01-02T10:51:00.864Z,11.80
2023-01-02T10:56:14.343Z,27.00
2023-01-02T11:01:20.620Z,25.00
2023-01-02T11:06:31.158Z,17.00
2023-01-02T11:11:39.029Z,29.70
2023-01-02T11:26:50.720Z,20.60
2023-01-02T11:31:59.606Z,18.80
2023-01-02T11:37:12.435Z,15.90
2023-01-02T11:42:53.269Z,14.90
2023-01-02T11:48:05.096Z,15.10
2023-01-02T11:53:12.413Z,13.80
2023-01-02T11:58:27.548Z,17.40
2023-01-02T12:03:33.150Z,14.50
2023-01-02T12:09:23.204Z,15.20
2023-01-02T12:14:35.369Z,11.50
2023-01-02T12:19:52.784Z,9.70
2023-01-02T12:25:17.933Z,8.60
2023-01-02T12:30:22.168Z,8.10
2023-01-02T12:35:46.247Z,11.00
2023-01-02T12:40:57.958Z,131.20
2023-01-02T12:46:09.834Z,234.10
2023-01-02T12:51:58.527Z,127.60
2023-01-02T12:57:30.034Z,185.50
2023-01-02T13:03:21.804Z,265.40
2023-01-02T13:08:46.383Z,117.00
2023-01-02T13:13:49.845Z,78.80
2023-01-02T13:19:04.771Z,18.20
2023-01-02T13:24:14.436Z,18.30
2023-01-02T13:29:17.427Z,19.90
2023-01-02T13:34:32.430Z,14.20
2023-01-02T13:39:41.507Z,13.80
2023-01-02T13:44:52.247Z,13.60
2023-01-02T13:50:13.078Z,16.60
2023-01-02T13:55:21.106Z,17.70
2023-01-02T14:00:36.132Z,19.20
2023-01-02T14:05:59.797Z,15.60
2023-01-02T14:11:05.596Z,30.10
2023-01-02T14:16:19.478Z,20.10
2023-01-02T14:21:22.530Z,26.70
2023-01-02T14:26:33.598Z,18.90
2023-01-02T14:31:37.711Z,15.40
2023-01-02T14:36:45.325Z,24.00
2023-01-02T14:42:06.870Z,23.40
2023-01-02T14:47:38.171Z,35.70
2023-01-02T14:52:47.557Z,22.10
2023-01-02T14:57:53.866Z,24.80
2023-01-02T15:03:19.162Z,21.20
2023-01-02T15:08:35.907Z,20.90
2023-01-02T15:14:05.502Z,17.00
2023-01-02T15:19:02.716Z,16.40
2023-01-02T15:24:07.755Z,17.00
2023-01-02T15:29:28.846Z,22.20
2023-01-02T15:34:34.161Z,18.20
2023-01-02T15:39:44.312Z,28.70
2023-01-02T15:45:06.248Z,19.90
2023-01-02T15:50:21.168Z,36.10
2023-01-02T15:55:24.836Z,23.70
2023-01-02T16:05:57.734Z,36.20
2023-01-02T16:11:03.865Z,19.40
2023-01-02T16:16:16.976Z,24.90
2023-01-02T16:21:21.124Z,20.50
2023-01-02T16:31:55.700Z,27.00
2023-01-02T16:37:14.379Z,21.20
2023-01-02T16:42:37.904Z,32.10
2023-01-02T16:47:43.759Z,20.80
2023-01-02T16:52:47.241Z,25.30
2023-01-02T16:57:51.487Z,26.20
2023-01-02T17:02:54.611Z,20.20
2023-01-02T17:07:57.767Z,18.30
2023-01-02T17:13:04.693Z,20.90
2023-01-02T17:18:09.735Z,22.50
2023-01-02T17:23:12.785Z,21.20
2023-01-02T17:28:16.587Z,19.50
2023-01-02T17:33:20.036Z,33.80
2023-01-02T17:38:22.976Z,27.00
2023-01-02T17:43:26.605Z,27.20
2023-01-02T17:48:30.499Z,27.60
2023-01-02T17:53:33.471Z,31.90
2023-01-02T17:58:36.407Z,32.40
2023-01-02T18:03:39.325Z,37.20
2023-01-02T18:08:42.602Z,46.90
2023-01-02T18:13:52.077Z,36.90
2023-01-02T18:18:55.546Z,44.50
2023-01-02T18:24:03.129Z,34.40
2023-01-02T18:29:17.223Z,49.80
2023-01-02T18:39:50.414Z,33.90
2023-01-02T18:44:56.604Z,39.70
2023-01-02T18:50:08.704Z,54.40
2023-01-02T18:55:11.605Z,81.20
2023-01-02T19:00:25.899Z,53.20
2023-01-02T19:05:36.469Z,79.50
2023-01-02T19:10:48.795Z,50.30
2023-01-02T19:16:01.915Z,47.80
2023-01-02T19:21:31.995Z,64.70
2023-01-02T19:26:39.219Z,94.00
2023-01-02T19:32:23.175Z,224.00
2023-01-02T19:37:40.542Z,81.90
2023-01-02T19:42:44.465Z,57.10
2023-01-02T19:47:49.402Z,44.70
2023-01-02T19:52:52.642Z,40.50
2023-01-02T19:57:55.773Z,51.30
2023-01-02T20:02:59.112Z,38.30
2023-01-02T20:08:02.521Z,36.30
2023-01-02T20:13:05.486Z,37.00
2023-01-02T20:18:09.121Z,37.40
2023-01-02T20:23:12.254Z,34.20
2023-01-02T20:28:15.194Z,40.80
2023-01-02T20:33:18.158Z,50.40
2023-01-02T20:38:21.103Z,56.40
2023-01-02T20:43:24.149Z,74.90
2023-01-02T20:48:27.277Z,45.90
2023-01-02T20:53:30.280Z,40.90
2023-01-02T20:58:33.419Z,47.30
2023-01-02T21:03:36.486Z,43.50
2023-01-02T21:08:39.928Z,38.50
2023-01-02T21:13:42.963Z,32.40
2023-01-02T21:18:45.965Z,42.90
2023-01-02T21:23:49.840Z,61.70
2023-01-02T21:28:52.834Z,42.80
2023-01-02T21:33:56.187Z,40.20
2023-01-02T21:38:59.165Z,56.80
2023-01-02T21:44:02.132Z,38.70
2023-01-02T21:49:05.080Z,32.40
2023-01-02T21:54:08.039Z,27.50
2023-01-02T21:59:10.966Z,22.60
2023-01-02T22:04:13.942Z,23.70
2023-01-02T22:09:17.151Z,24.70
2023-01-02T22:14:20.324Z,24.20
2023-01-02T22:19:25.781Z,23.00
2023-01-02T22:24:29.151Z,21.10
2023-01-02T22:30:09.778Z,21.30
2023-01-02T22:34:57.113Z,43.40
2023-01-02T22:40:01.873Z,22.80
2023-01-02T22:45:06.556Z,19.70
2023-01-02T22:50:20.292Z,19.30
2023-01-02T22:55:24.275Z,21.70
2023-01-02T23:00:27.223Z,21.10
2023-01-02T23:05:30.147Z,20.60
2023-01-02T23:10:33.215Z,28.40
2023-01-02T23:15:36.190Z,20.70
2023-01-02T23:20:39.160Z,21.50
2023-01-02T23:25:43.628Z,21.80
2023-01-02T23:30:46.554Z,44.60
2023-01-02T23:35:52.425Z,23.20
2023-01-02T23:40:55.368Z,20.90
2023-01-02T23:45:58.334Z,29.80
2023-01-02T23:51:04.504Z,27.10
2023-01-02T23:56:23.415Z,22.60
